createdAt,value
2017-11-19T00:03:33.214Z,5.80
2017-11-19T00:06:01.297Z,4.87
2017-11-19T00:08:29.372Z,4.63
2017-11-19T00:10:57.490Z,4.87
2017-11-19T00:13:25.561Z,4.97
2017-11-19T00:15:54.645Z,4.20
2017-11-19T00:18:23.756Z,4.93
2017-11-19T00:20:52.973Z,4.10
2017-11-19T00:23:21.363Z,3.80
2017-11-19T00:25:49.692Z,4.27
2017-11-19T00:28:18.030Z,4.00
2017-11-19T00:30:46.343Z,4.20
2017-11-19T00:33:14.703Z,4.90
2017-11-19T00:35:43.466Z,3.80
2017-11-19T00:38:11.889Z,3.97
2017-11-19T00:40:40.986Z,4.67
2017-11-19T00:43:09.288Z,3.80
2017-11-19T00:45:37.639Z,4.23
2017-11-19T00:48:05.948Z,4.70
2017-11-19T00:50:35.050Z,4.30
2017-11-19T00:53:04.116Z,4.77
2017-11-19T00:55:32.434Z,4.30
2017-11-19T00:58:01.508Z,4.10
2017-11-19T01:00:30.596Z,4.37
2017-11-19T01:02:59.694Z,4.60
2017-11-19T01:05:28.036Z,4.13
2017-11-19T01:07:56.347Z,4.20
2017-11-19T01:10:24.667Z,4.03
2017-11-19T01:12:52.972Z,4.13
2017-11-19T01:15:21.304Z,4.60
2017-11-19T01:17:50.379Z,3.73
2017-11-19T01:20:18.721Z,4.23
2017-11-19T01:22:47.028Z,3.13
2017-11-19T01:25:15.347Z,3.87
2017-11-19T01:27:43.688Z,4.77
2017-11-19T01:30:11.994Z,3.60
2017-11-19T01:32:41.087Z,3.70
2017-11-19T01:35:09.406Z,3.43
2017-11-19T01:37:37.744Z,4.57
2017-11-19T01:40:06.827Z,3.53
2017-11-19T01:42:35.942Z,4.00
2017-11-19T01:45:04.287Z,3.63
2017-11-19T01:47:32.663Z,3.50
2017-11-19T01:50:00.971Z,3.27
2017-11-19T01:52:30.074Z,3.03
2017-11-19T01:54:59.138Z,3.63
2017-11-19T01:57:27.493Z,3.43
2017-11-19T01:59:55.864Z,2.73
2017-11-19T02:02:31.169Z,3.47
2017-11-19T02:04:59.555Z,4.10
2017-11-19T02:07:28.652Z,3.50
2017-11-19T02:09:56.968Z,3.10
2017-11-19T02:12:25.306Z,4.17
2017-11-19T02:14:53.618Z,3.53
2017-11-19T02:17:21.955Z,4.23
2017-11-19T02:19:50.480Z,4.03
2017-11-19T02:22:18.842Z,5.23
2017-11-19T02:24:47.194Z,4.70
2017-11-19T02:27:16.285Z,4.40
2017-11-19T02:29:44.611Z,3.70
2017-11-19T02:32:12.952Z,3.67
2017-11-19T02:34:41.322Z,4.50
2017-11-19T02:37:09.763Z,4.73
2017-11-19T02:39:38.148Z,4.50
2017-11-19T02:42:06.485Z,4.30
2017-11-19T02:44:34.812Z,4.27
2017-11-19T02:47:03.139Z,4.07
2017-11-19T02:49:31.476Z,4.00
2017-11-19T02:51:59.799Z,3.97
2017-11-19T02:54:28.114Z,4.70
2017-11-19T02:56:56.437Z,4.10
2017-11-19T02:59:24.784Z,3.87
2017-11-19T03:01:53.115Z,3.60
2017-11-19T03:04:21.454Z,3.93
2017-11-19T03:06:49.789Z,3.67
2017-11-19T03:09:18.109Z,4.00
2017-11-19T03:11:47.433Z,3.70
2017-11-19T03:14:16.528Z,2.77
2017-11-19T03:16:45.643Z,3.03
2017-11-19T03:19:14.784Z,2.77
2017-11-19T03:21:43.241Z,2.80
2017-11-19T03:24:12.402Z,2.83
2017-11-19T03:26:41.503Z,3.20
2017-11-19T03:29:10.580Z,2.50
2017-11-19T03:31:38.934Z,2.33
2017-11-19T03:34:07.269Z,2.27
2017-11-19T03:36:35.592Z,2.23
2017-11-19T03:39:03.926Z,1.73
2017-11-19T03:41:32.269Z,2.63
2017-11-19T03:44:00.728Z,1.83
2017-11-19T03:46:29.864Z,1.90
2017-11-19T03:48:58.964Z,2.73
2017-11-19T03:51:28.065Z,1.70
2017-11-19T03:53:57.192Z,2.23
2017-11-19T03:56:25.524Z,1.90
2017-11-19T03:58:53.876Z,2.60
2017-11-19T04:01:23.313Z,1.93
2017-11-19T04:04:06.494Z,2.00
2017-11-19T04:06:34.901Z,1.90
2017-11-19T04:09:04.032Z,1.80
2017-11-19T04:11:33.137Z,2.47
2017-11-19T04:14:01.466Z,1.80
2017-11-19T04:16:29.833Z,2.03
2017-11-19T04:18:58.225Z,1.60
2017-11-19T04:21:26.583Z,2.10
2017-11-19T04:23:54.953Z,1.80
2017-11-19T04:26:24.077Z,1.77
2017-11-19T04:28:52.399Z,1.70
2017-11-19T04:31:21.498Z,1.60
2017-11-19T04:33:49.868Z,2.03
2017-11-19T04:36:18.987Z,1.63
2017-11-19T04:38:47.391Z,2.17
2017-11-19T04:41:15.778Z,1.90
2017-11-19T04:43:44.106Z,2.00
2017-11-19T04:46:13.220Z,1.63
2017-11-19T04:48:41.550Z,2.30
2017-11-19T04:51:09.903Z,1.83
2017-11-19T04:53:38.240Z,2.13
2017-11-19T04:56:07.375Z,2.33
2017-11-19T04:58:35.740Z,2.43
2017-11-19T05:01:24.809Z,1.80
2017-11-19T05:03:53.148Z,1.40
2017-11-19T05:06:21.548Z,1.57
2017-11-19T05:08:50.371Z,1.13
2017-11-19T05:11:19.734Z,1.37
2017-11-19T05:13:48.863Z,1.30
2017-11-19T05:16:17.186Z,1.20
2017-11-19T05:18:45.528Z,1.93
2017-11-19T05:21:13.843Z,1.10
2017-11-19T05:23:42.184Z,1.70
2017-11-19T05:26:10.695Z,1.53
2017-11-19T05:28:39.104Z,1.90
2017-11-19T05:31:08.206Z,1.53
2017-11-19T05:33:37.302Z,1.63
2017-11-19T05:36:05.647Z,1.20
2017-11-19T05:38:34.007Z,1.47
2017-11-19T05:41:02.334Z,1.07
2017-11-19T05:43:31.486Z,1.37
2017-11-19T05:45:59.823Z,1.00
2017-11-19T05:48:28.896Z,1.20
2017-11-19T05:50:57.232Z,1.33
2017-11-19T05:53:25.539Z,1.40
2017-11-19T05:55:53.864Z,1.87
2017-11-19T05:58:29.131Z,1.50
2017-11-19T06:00:57.463Z,1.50
2017-11-19T06:03:26.531Z,1.60
2017-11-19T06:05:54.862Z,1.53
2017-11-19T06:08:35.935Z,1.67
2017-11-19T06:11:04.256Z,1.60
2017-11-19T06:13:32.566Z,1.83
2017-11-19T06:16:00.894Z,2.77
2017-11-19T06:18:29.195Z,4.20
2017-11-19T06:20:57.520Z,3.23
2017-11-19T06:23:26.618Z,3.60
2017-11-19T06:25:54.931Z,7.00
2017-11-19T06:28:23.254Z,5.37
2017-11-19T06:30:51.554Z,6.03
2017-11-19T06:33:19.870Z,4.93
2017-11-19T06:38:54.939Z,3.33
2017-11-19T06:41:23.254Z,3.60
2017-11-19T06:43:52.359Z,2.93
2017-11-19T06:46:21.432Z,2.50
2017-11-19T06:48:49.758Z,1.87
2017-11-19T06:51:18.184Z,2.63
2017-11-19T06:53:46.603Z,2.57
2017-11-19T06:56:14.911Z,2.93
2017-11-19T06:58:43.234Z,2.27
2017-11-19T07:01:17.443Z,2.73
2017-11-19T07:03:45.762Z,2.63
2017-11-19T07:06:14.100Z,3.03
2017-11-19T07:08:42.453Z,2.30
2017-11-19T07:11:13.843Z,3.23
2017-11-19T07:13:42.910Z,2.33
2017-11-19T07:16:11.270Z,2.90
2017-11-19T07:18:39.585Z,3.50
2017-11-19T07:21:08.689Z,2.73
2017-11-19T07:23:36.988Z,2.77
2017-11-19T07:26:06.070Z,2.37
2017-11-19T07:28:35.154Z,2.13
2017-11-19T07:31:08.967Z,3.07
2017-11-19T07:33:38.047Z,2.43
2017-11-19T07:36:06.386Z,2.37
2017-11-19T07:38:34.728Z,2.80
2017-11-19T07:41:07.018Z,2.03
2017-11-19T07:43:35.318Z,1.97
2017-11-19T07:46:09.460Z,1.90
2017-11-19T07:48:37.771Z,2.20
2017-11-19T07:51:06.099Z,1.77
2017-11-19T07:53:41.454Z,1.80
2017-11-19T07:56:09.758Z,2.33
2017-11-19T07:58:38.092Z,2.57
2017-11-19T08:01:06.386Z,2.10
2017-11-19T08:03:34.773Z,1.90
2017-11-19T08:06:03.166Z,1.60
2017-11-19T08:08:32.386Z,2.27
2017-11-19T08:11:01.483Z,1.80
2017-11-19T08:13:30.575Z,1.73
2017-11-19T08:15:59.687Z,2.13
2017-11-19T08:18:28.768Z,2.47
2017-11-19T08:20:57.855Z,2.43
2017-11-19T08:23:27.006Z,8.60
2017-11-19T08:25:55.331Z,4.57
2017-11-19T08:28:23.669Z,2.57
2017-11-19T08:30:51.982Z,4.93
2017-11-19T08:33:20.330Z,3.20
2017-11-19T08:35:48.658Z,3.20
2017-11-19T08:38:16.963Z,2.43
2017-11-19T08:40:45.310Z,2.10
2017-11-19T08:43:13.622Z,2.30
2017-11-19T08:45:41.957Z,2.30
2017-11-19T08:48:10.271Z,2.47
2017-11-19T08:50:38.606Z,1.90
2017-11-19T08:53:06.931Z,1.67
2017-11-19T08:55:35.251Z,2.23
2017-11-19T08:58:03.559Z,2.23
2017-11-19T09:00:31.935Z,2.50
2017-11-19T09:03:01.011Z,2.37
2017-11-19T09:05:29.349Z,3.17
2017-11-19T09:07:57.668Z,2.20
2017-11-19T09:10:26.008Z,2.47
2017-11-19T09:12:54.325Z,2.50
2017-11-19T09:15:22.637Z,2.90
2017-11-19T09:17:51.734Z,1.63
2017-11-19T09:20:20.817Z,6.50
2017-11-19T09:22:49.146Z,2.00
2017-11-19T09:25:17.446Z,1.93
2017-11-19T09:27:45.786Z,2.70
2017-11-19T09:30:14.092Z,2.23
2017-11-19T09:32:42.425Z,2.87
2017-11-19T09:35:11.498Z,3.10
2017-11-19T09:37:39.832Z,3.10
2017-11-19T09:40:08.157Z,2.03
2017-11-19T09:42:36.474Z,3.30
2017-11-19T09:45:04.787Z,2.40
2017-11-19T09:47:33.113Z,3.00
2017-11-19T09:50:02.181Z,3.47
2017-11-19T09:52:30.535Z,2.70
2017-11-19T09:54:58.859Z,2.43
2017-11-19T09:57:27.925Z,3.03
2017-11-19T09:59:56.263Z,2.90
2017-11-19T10:02:24.575Z,2.87
2017-11-19T10:04:55.962Z,2.80
2017-11-19T10:07:25.039Z,3.07
2017-11-19T10:09:53.365Z,2.30
2017-11-19T10:12:22.582Z,3.00
2017-11-19T10:14:50.903Z,2.50
2017-11-19T10:17:19.215Z,2.50
2017-11-19T10:19:47.558Z,3.33
2017-11-19T10:22:15.852Z,2.53
2017-11-19T10:24:44.205Z,2.70
2017-11-19T10:27:12.517Z,3.33
2017-11-19T10:29:41.579Z,3.60
2017-11-19T10:32:09.912Z,2.90
2017-11-19T10:34:38.489Z,3.53
2017-11-19T10:37:07.089Z,3.53
2017-11-19T10:39:35.578Z,4.83
2017-11-19T10:42:04.061Z,4.30
2017-11-19T10:44:32.513Z,3.70
2017-11-19T10:47:01.237Z,4.63
2017-11-19T10:49:29.967Z,3.20
2017-11-19T10:51:58.635Z,3.07
2017-11-19T10:54:27.065Z,3.30
2017-11-19T10:56:55.699Z,3.87
2017-11-19T10:59:24.464Z,3.33
2017-11-19T11:01:53.115Z,2.40
2017-11-19T11:04:21.814Z,1.90
2017-11-19T11:06:50.410Z,3.70
2017-11-19T11:09:18.749Z,3.70
2017-11-19T11:11:47.906Z,4.40
2017-11-19T11:14:16.250Z,1.97
2017-11-19T11:16:44.569Z,1.73
2017-11-19T11:19:12.940Z,1.77
2017-11-19T11:21:41.252Z,2.20
2017-11-19T11:24:28.534Z,1.47
2017-11-19T11:26:56.907Z,1.60
2017-11-19T11:29:31.868Z,2.20
2017-11-19T11:32:00.158Z,1.37
2017-11-19T11:34:28.495Z,2.63
2017-11-19T11:36:56.838Z,2.17
2017-11-19T11:39:25.190Z,2.30
2017-11-19T11:41:54.836Z,2.60
2017-11-19T11:44:23.299Z,4.17
2017-11-19T11:46:52.409Z,2.43
2017-11-19T11:49:20.712Z,2.07
2017-11-19T11:51:49.058Z,2.20
2017-11-19T11:54:18.137Z,2.63
2017-11-19T11:56:46.463Z,2.00
2017-11-19T11:59:14.767Z,1.23
2017-11-19T12:01:43.121Z,1.63
2017-11-19T12:04:11.416Z,2.57
2017-11-19T12:06:39.802Z,9.37
2017-11-19T12:09:08.106Z,15.43
2017-11-19T12:11:36.435Z,2.70
2017-11-19T12:14:04.726Z,1.60
2017-11-19T12:16:33.046Z,2.00
2017-11-19T12:19:01.335Z,1.50
2017-11-19T12:21:30.419Z,2.10
2017-11-19T12:23:58.719Z,2.90
2017-11-19T12:26:27.815Z,1.80
2017-11-19T12:28:56.148Z,1.80
2017-11-19T12:31:24.467Z,2.67
2017-11-19T12:33:52.781Z,1.80
2017-11-19T12:36:21.100Z,2.80
2017-11-19T12:38:49.399Z,1.23
2017-11-19T12:41:17.747Z,1.60
2017-11-19T12:43:46.047Z,2.40
2017-11-19T12:46:14.340Z,1.83
2017-11-19T12:48:43.424Z,1.47
2017-11-19T12:51:11.732Z,1.20
2017-11-19T12:53:40.059Z,2.40
2017-11-19T12:56:08.355Z,1.57
2017-11-19T12:58:36.682Z,1.67
2017-11-19T13:01:04.991Z,1.63
2017-11-19T13:03:33.306Z,1.53
2017-11-19T13:06:02.369Z,1.83
2017-11-19T13:08:30.692Z,1.47
2017-11-19T13:10:58.992Z,1.70
2017-11-19T13:13:27.312Z,2.27
2017-11-19T13:15:55.606Z,1.87
2017-11-19T13:18:23.935Z,2.00
2017-11-19T13:20:52.233Z,1.63
2017-11-19T13:23:20.547Z,1.73
2017-11-19T13:25:49.599Z,2.30
2017-11-19T13:28:17.915Z,1.87
2017-11-19T13:30:46.977Z,1.80
2017-11-19T13:33:15.290Z,2.20
2017-11-19T13:35:44.361Z,2.00
2017-11-19T13:38:12.679Z,1.93
2017-11-19T13:40:40.973Z,2.37
2017-11-19T13:43:09.296Z,1.90
2017-11-19T13:45:37.614Z,2.23
2017-11-19T13:48:05.922Z,2.10
2017-11-19T13:50:34.239Z,1.93
2017-11-19T13:53:02.544Z,2.10
2017-11-19T13:55:31.666Z,2.53
2017-11-19T13:57:59.938Z,2.00
2017-11-19T14:00:28.263Z,4.50
2017-11-19T14:02:56.567Z,4.43
2017-11-19T14:05:25.649Z,1.60
2017-11-19T14:07:54.155Z,1.90
2017-11-19T14:10:23.254Z,2.10
2017-11-19T14:12:51.550Z,2.57
2017-11-19T14:15:20.795Z,3.80
2017-11-19T14:17:49.104Z,3.10
2017-11-19T14:20:18.190Z,3.90
2017-11-19T14:22:47.265Z,2.07
2017-11-19T14:25:15.585Z,2.00
2017-11-19T14:27:43.886Z,1.90
2017-11-19T14:30:12.207Z,2.10
2017-11-19T14:32:40.514Z,2.60
2017-11-19T14:35:08.835Z,3.20
2017-11-19T14:37:37.134Z,3.30
2017-11-19T14:40:05.456Z,4.20
2017-11-19T14:42:33.750Z,2.17
2017-11-19T14:45:02.070Z,2.30
2017-11-19T14:47:30.383Z,2.73
2017-11-19T14:49:59.462Z,2.63
2017-11-19T14:52:28.522Z,3.00
2017-11-19T14:54:56.870Z,7.30
2017-11-19T14:57:25.171Z,9.53
2017-11-19T14:59:56.631Z,2.87
2017-11-19T15:02:24.953Z,2.83
2017-11-19T15:04:54.023Z,3.00
2017-11-19T15:07:22.345Z,6.53
2017-11-19T15:09:51.600Z,6.70
2017-11-19T15:12:19.918Z,5.60
2017-11-19T15:14:48.226Z,5.00
2017-11-19T15:17:16.550Z,3.90
2017-11-19T15:19:44.851Z,8.53
2017-11-19T15:22:13.184Z,5.03
2017-11-19T15:24:41.500Z,6.10
2017-11-19T15:27:10.598Z,6.67
2017-11-19T15:29:39.673Z,10.10
2017-11-19T15:32:09.698Z,8.90
2017-11-19T15:34:38.862Z,9.27
2017-11-19T15:37:07.207Z,8.97
2017-11-19T15:39:35.522Z,7.13
2017-11-19T15:42:03.856Z,6.20
2017-11-19T15:44:32.154Z,4.90
2017-11-19T15:47:00.482Z,4.00
2017-11-19T15:49:28.783Z,2.17
2017-11-19T15:51:57.861Z,2.10
2017-11-19T15:54:26.934Z,1.80
2017-11-19T15:56:55.250Z,1.97
2017-11-19T15:59:24.316Z,3.40
2017-11-19T16:01:52.646Z,2.50
2017-11-19T16:04:21.708Z,2.40
2017-11-19T16:06:50.819Z,2.03
2017-11-19T16:09:19.886Z,1.90
2017-11-19T16:11:48.182Z,1.80
2017-11-19T16:14:17.410Z,3.27
2017-11-19T16:16:45.795Z,2.80
2017-11-19T16:19:14.335Z,3.53
2017-11-19T16:21:42.783Z,3.83
2017-11-19T16:24:11.318Z,4.00
2017-11-19T16:26:52.692Z,3.13
2017-11-19T16:29:21.319Z,4.37
2017-11-19T16:31:50.005Z,4.10
2017-11-19T16:34:19.292Z,3.00
2017-11-19T16:36:51.573Z,2.93
2017-11-19T16:39:20.096Z,2.20
2017-11-19T16:41:48.625Z,2.57
2017-11-19T16:44:25.186Z,2.60
2017-11-19T16:46:53.750Z,2.57
2017-11-19T16:49:22.147Z,3.00
2017-11-19T16:51:51.235Z,3.17
2017-11-19T16:54:20.297Z,2.67
2017-11-19T16:56:48.610Z,2.70
2017-11-19T16:59:16.918Z,3.43
2017-11-19T17:01:57.395Z,2.80
2017-11-19T17:04:25.811Z,2.80
2017-11-19T17:06:54.244Z,2.67
2017-11-19T17:09:22.601Z,2.23
2017-11-19T17:11:51.683Z,2.13
2017-11-19T17:14:20.037Z,2.80
2017-11-19T17:16:48.541Z,3.03
2017-11-19T17:19:17.795Z,2.47
2017-11-19T17:21:46.107Z,3.60
2017-11-19T17:24:14.435Z,4.10
2017-11-19T17:26:42.734Z,5.73
2017-11-19T17:29:11.086Z,3.87
2017-11-19T17:31:39.368Z,2.90
2017-11-19T17:34:09.684Z,4.00
2017-11-19T17:36:38.019Z,4.37
2017-11-19T17:39:06.339Z,5.77
2017-11-19T17:41:34.677Z,3.30
2017-11-19T17:44:02.993Z,3.07
2017-11-19T17:46:44.939Z,3.37
2017-11-19T17:49:13.242Z,3.47
2017-11-19T17:51:41.564Z,3.50
2017-11-19T17:54:09.867Z,3.57
2017-11-19T17:56:38.231Z,3.80
2017-11-19T17:59:06.534Z,3.70
2017-11-19T18:01:34.866Z,5.37
2017-11-19T18:04:03.179Z,5.23
2017-11-19T18:06:31.517Z,5.47
2017-11-19T18:09:00.592Z,4.63
2017-11-19T18:11:28.955Z,4.30
2017-11-19T18:13:57.263Z,5.17
2017-11-19T18:16:26.376Z,5.10
2017-11-19T18:19:04.503Z,3.77
2017-11-19T18:21:32.842Z,3.43
2017-11-19T18:24:01.157Z,3.63
2017-11-19T18:26:29.504Z,5.23
2017-11-19T18:28:58.591Z,7.97
2017-11-19T18:31:33.422Z,4.03
2017-11-19T18:34:02.505Z,4.77
2017-11-19T18:36:30.834Z,3.60
2017-11-19T18:39:01.106Z,5.20
2017-11-19T18:41:29.486Z,3.10
2017-11-19T18:43:57.804Z,2.50
2017-11-19T18:46:26.143Z,3.10
2017-11-19T18:49:01.648Z,3.70
2017-11-19T18:51:29.990Z,4.40
2017-11-19T18:53:59.073Z,3.47
2017-11-19T18:56:27.622Z,5.20
2017-11-19T18:59:02.004Z,2.73
2017-11-19T19:01:31.109Z,3.07
2017-11-19T19:03:59.419Z,3.97
2017-11-19T19:06:27.732Z,2.27
2017-11-19T19:09:02.307Z,3.10
2017-11-19T19:11:30.629Z,3.00
2017-11-19T19:13:58.996Z,3.67
2017-11-19T19:16:27.276Z,2.40
2017-11-19T19:18:55.618Z,3.73
2017-11-19T19:21:23.940Z,3.40
2017-11-19T19:23:52.275Z,3.27
2017-11-19T19:26:20.629Z,2.93
2017-11-19T19:28:48.951Z,3.43
2017-11-19T19:31:17.281Z,3.13
2017-11-19T19:33:46.385Z,2.80
2017-11-19T19:36:15.456Z,2.80
2017-11-19T19:38:43.794Z,3.07
2017-11-19T19:41:14.016Z,2.70
2017-11-19T19:43:42.352Z,3.17
2017-11-19T19:46:11.429Z,2.60
2017-11-19T19:48:39.755Z,2.33
2017-11-19T19:51:08.057Z,3.70
2017-11-19T19:53:36.389Z,3.90
2017-11-19T19:56:05.471Z,2.83
2017-11-19T19:58:34.576Z,3.20
2017-11-19T20:01:02.880Z,3.10
2017-11-19T20:03:31.201Z,2.47
2017-11-19T20:05:59.510Z,2.97
2017-11-19T20:08:28.599Z,2.63
2017-11-19T20:10:57.672Z,2.70
2017-11-19T20:13:26.037Z,3.47
2017-11-19T20:15:54.367Z,3.67
2017-11-19T20:18:23.437Z,3.13
2017-11-19T20:20:51.772Z,3.07
2017-11-19T20:23:20.840Z,3.70
2017-11-19T20:25:49.176Z,3.27
2017-11-19T20:28:17.486Z,3.20
2017-11-19T20:30:46.603Z,3.30
2017-11-19T20:33:14.908Z,2.40
2017-11-19T20:35:43.238Z,2.40
2017-11-19T20:38:12.306Z,3.20
2017-11-19T20:40:40.635Z,3.40
2017-11-19T20:43:08.956Z,2.90
2017-11-19T20:45:37.302Z,2.70
2017-11-19T20:48:05.656Z,4.23
2017-11-19T20:50:34.750Z,2.50
2017-11-19T20:53:03.059Z,2.40
2017-11-19T20:55:31.397Z,2.80
2017-11-19T20:58:00.457Z,2.60
2017-11-19T21:00:28.814Z,2.40
2017-11-19T21:02:57.150Z,2.70
2017-11-19T21:05:26.258Z,2.30
2017-11-19T21:07:55.340Z,2.90
2017-11-19T21:10:24.433Z,2.80
2017-11-19T21:12:52.731Z,2.80
2017-11-19T21:15:21.813Z,3.13
2017-11-19T21:17:50.879Z,2.97
2017-11-19T21:20:19.202Z,2.87
2017-11-19T21:22:47.526Z,2.90
2017-11-19T21:25:15.825Z,2.60
2017-11-19T21:27:44.159Z,2.50
2017-11-19T21:30:12.743Z,2.90
2017-11-19T21:32:41.346Z,2.00
2017-11-19T21:35:09.799Z,2.83
2017-11-19T21:37:38.415Z,3.60
2017-11-19T21:40:07.706Z,2.73
2017-11-19T21:42:36.377Z,3.10
2017-11-19T21:45:04.901Z,3.20
2017-11-19T21:47:33.224Z,3.63
2017-11-19T21:50:01.567Z,2.90
2017-11-19T21:52:29.913Z,3.93
2017-11-19T21:54:58.243Z,3.40
2017-11-19T21:57:27.422Z,3.50
2017-11-19T21:59:55.972Z,3.97
2017-11-19T22:02:24.605Z,3.20
2017-11-19T22:04:53.102Z,4.00
2017-11-19T22:07:21.572Z,3.53
2017-11-19T22:09:50.765Z,3.80
2017-11-19T22:12:19.201Z,4.17
2017-11-19T22:14:48.575Z,5.20
2017-11-19T22:17:17.051Z,4.33
2017-11-19T22:19:45.468Z,3.00
2017-11-19T22:22:13.896Z,3.33
2017-11-19T22:24:42.605Z,3.30
2017-11-19T22:27:11.364Z,3.17
2017-11-19T22:29:39.829Z,3.30
2017-11-19T22:32:09.110Z,3.20
2017-11-19T22:34:37.526Z,2.27
2017-11-19T22:37:06.144Z,2.97
2017-11-19T22:39:34.604Z,2.70
2017-11-19T22:42:03.416Z,3.13
2017-11-19T22:44:31.936Z,2.90
2017-11-19T22:47:00.494Z,3.37
2017-11-19T22:49:28.911Z,2.37
2017-11-19T22:51:57.391Z,2.20
2017-11-19T22:54:26.651Z,3.10
2017-11-19T22:56:55.055Z,3.50
2017-11-19T22:59:23.522Z,3.67
2017-11-19T23:01:51.850Z,3.20
2017-11-19T23:04:20.334Z,3.60
2017-11-19T23:06:48.884Z,3.30
2017-11-19T23:09:17.406Z,5.43
2017-11-19T23:11:45.896Z,4.40
2017-11-19T23:14:14.406Z,4.10
2017-11-19T23:16:42.892Z,5.50
2017-11-19T23:19:11.428Z,3.63
2017-11-19T23:21:39.914Z,3.50
2017-11-19T23:24:08.468Z,3.73
2017-11-19T23:26:36.940Z,4.90
2017-11-19T23:29:05.359Z,3.93
2017-11-19T23:31:33.763Z,4.13
2017-11-19T23:34:02.177Z,4.20
2017-11-19T23:36:30.548Z,3.83
2017-11-19T23:38:59.883Z,3.37
2017-11-19T23:41:29.129Z,4.57
2017-11-19T23:43:57.541Z,4.73
2017-11-19T23:46:25.945Z,3.80
2017-11-19T23:48:55.228Z,4.50
2017-11-19T23:51:23.684Z,4.60
2017-11-19T23:53:52.085Z,4.67
2017-11-19T23:56:20.654Z,4.90
2017-11-19T23:58:49.198Z,3.87
